createdAt,value
2023-02-09T00:01:31.533Z,76.05
2023-02-09T00:03:59.959Z,76.53
2023-02-09T00:06:29.787Z,77.95
2023-02-09T00:08:58.456Z,83.00
2023-02-09T00:11:48.184Z,82.80
2023-02-09T00:14:20.298Z,82.35
2023-02-09T00:16:48.976Z,77.30
2023-02-09T00:19:15.842Z,73.03
2023-02-09T00:21:42.612Z,74.85
2023-02-09T00:24:10.758Z,76.53
2023-02-09T00:26:38.800Z,76.82
2023-02-09T00:29:06.603Z,77.78
2023-02-09T00:31:34.251Z,75.45
2023-02-09T00:34:01.853Z,75.80
2023-02-09T00:36:29.236Z,70.20
2023-02-09T00:38:56.616Z,72.03
2023-02-09T00:41:43.343Z,74.75
2023-02-09T00:44:12.176Z,69.43
2023-02-09T00:46:38.988Z,62.53
2023-02-09T00:49:05.803Z,65.63
2023-02-09T00:51:32.601Z,63.47
2023-02-09T00:53:59.442Z,70.85
2023-02-09T00:56:26.265Z,67.80
2023-02-09T00:58:53.031Z,66.63
2023-02-09T01:01:19.854Z,62.20
2023-02-09T01:03:47.228Z,65.07
2023-02-09T01:06:13.977Z,63.78
2023-02-09T01:08:40.745Z,57.65
2023-02-09T01:11:12.673Z,58.45
2023-02-09T01:13:39.942Z,52.78
2023-02-09T01:16:17.029Z,56.22
2023-02-09T01:18:44.023Z,60.75
2023-02-09T01:21:16.578Z,59.20
2023-02-09T01:23:43.641Z,50.35
2023-02-09T01:26:14.875Z,56.60
2023-02-09T01:28:42.013Z,53.85
2023-02-09T01:31:30.856Z,56.50
2023-02-09T01:34:00.404Z,48.63
2023-02-09T01:36:28.951Z,47.78
2023-02-09T01:38:58.768Z,54.35
2023-02-09T01:41:26.340Z,60.03
2023-02-09T01:44:05.674Z,53.78
2023-02-09T01:46:35.637Z,52.17
2023-02-09T01:49:17.630Z,52.15
2023-02-09T01:51:49.094Z,54.88
2023-02-09T01:54:24.019Z,52.13
2023-02-09T01:56:56.627Z,56.72
2023-02-09T01:59:23.824Z,50.00
2023-02-09T02:01:52.321Z,54.28
2023-02-09T02:04:20.804Z,51.42
2023-02-09T02:06:48.275Z,54.13
2023-02-09T02:09:17.552Z,57.50
2023-02-09T02:11:47.448Z,52.80
2023-02-09T02:14:36.460Z,51.88
2023-02-09T02:17:21.690Z,50.10
2023-02-09T02:20:16.107Z,47.53
2023-02-09T02:23:28.835Z,50.03
2023-02-09T02:26:33.317Z,50.47
2023-02-09T02:29:28.800Z,50.10
2023-02-09T02:32:31.103Z,49.00
2023-02-09T02:35:16.425Z,48.22
2023-02-09T02:38:05.929Z,48.75
2023-02-09T02:40:49.871Z,44.17
2023-02-09T02:43:19.305Z,48.75
2023-02-09T02:46:04.742Z,45.33
2023-02-09T02:48:51.668Z,48.33
2023-02-09T02:51:33.367Z,47.33
2023-02-09T02:54:10.565Z,47.65
2023-02-09T02:56:42.156Z,48.00
2023-02-09T02:59:14.569Z,47.67
2023-02-09T03:01:47.935Z,45.83
2023-02-09T03:04:16.087Z,42.58
2023-02-09T03:06:42.864Z,46.60
2023-02-09T03:09:09.767Z,42.22
2023-02-09T03:11:42.068Z,45.13
2023-02-09T03:14:28.089Z,41.95
2023-02-09T03:17:37.179Z,44.78
2023-02-09T03:20:16.062Z,44.50
2023-02-09T03:22:49.192Z,44.15
2023-02-09T03:25:22.837Z,41.80
2023-02-09T03:28:08.138Z,41.28
2023-02-09T03:30:35.938Z,41.38
2023-02-09T03:33:04.472Z,42.80
2023-02-09T03:35:40.111Z,38.83
2023-02-09T03:38:07.233Z,38.78
2023-02-09T03:40:35.020Z,40.90
2023-02-09T03:43:01.811Z,43.22
2023-02-09T03:45:28.632Z,43.45
2023-02-09T03:47:55.388Z,36.03
2023-02-09T03:50:22.160Z,39.92
2023-02-09T03:52:48.918Z,41.67
2023-02-09T03:55:15.685Z,38.08
2023-02-09T03:57:42.464Z,42.35
2023-02-09T04:00:10.337Z,40.42
2023-02-09T04:02:37.283Z,39.17
2023-02-09T04:05:05.849Z,41.78
2023-02-09T04:07:32.982Z,39.75
2023-02-09T04:09:59.757Z,39.30
2023-02-09T04:12:26.524Z,39.30
2023-02-09T04:14:53.287Z,39.63
2023-02-09T04:17:20.062Z,36.42
2023-02-09T04:19:46.830Z,36.83
2023-02-09T04:22:13.626Z,42.08
2023-02-09T04:24:40.382Z,36.90
2023-02-09T04:27:07.143Z,34.97
2023-02-09T04:29:33.982Z,34.65
2023-02-09T04:32:00.941Z,33.20
2023-02-09T04:34:27.809Z,35.53
2023-02-09T04:36:54.593Z,34.85
2023-02-09T04:39:21.367Z,33.75
2023-02-09T04:41:48.159Z,33.92
2023-02-09T04:44:14.940Z,32.10
2023-02-09T04:46:42.301Z,35.35
2023-02-09T04:49:10.036Z,34.30
2023-02-09T04:51:36.940Z,33.08
2023-02-09T04:54:03.746Z,37.40
2023-02-09T04:56:30.528Z,31.33
2023-02-09T04:59:15.713Z,37.17
2023-02-09T05:01:42.479Z,33.92
2023-02-09T05:04:09.260Z,37.00
2023-02-09T05:06:36.049Z,31.77
2023-02-09T05:09:03.149Z,33.35
2023-02-09T05:11:29.948Z,28.90
2023-02-09T05:13:56.727Z,30.17
2023-02-09T05:16:23.688Z,33.08
2023-02-09T05:18:51.026Z,30.15
2023-02-09T05:21:17.837Z,35.55
2023-02-09T05:23:44.586Z,32.47
2023-02-09T05:26:11.341Z,31.83
2023-02-09T05:28:38.188Z,30.00
2023-02-09T05:31:05.089Z,33.85
2023-02-09T05:33:31.929Z,30.27
2023-02-09T05:35:58.774Z,32.80
2023-02-09T05:38:25.638Z,33.65
2023-02-09T05:40:52.423Z,29.23
2023-02-09T05:43:19.436Z,32.15
2023-02-09T05:45:46.608Z,34.08
2023-02-09T05:48:13.440Z,33.35
2023-02-09T05:50:40.306Z,32.00
2023-02-09T05:53:08.462Z,36.63
2023-02-09T05:55:35.262Z,30.05
2023-02-09T05:58:02.044Z,31.08
2023-02-09T06:00:29.831Z,30.58
2023-02-09T06:02:56.933Z,29.25
2023-02-09T06:05:23.762Z,29.92
2023-02-09T06:07:50.762Z,32.45
2023-02-09T06:10:18.705Z,28.67
2023-02-09T06:12:45.543Z,33.83
2023-02-09T06:15:13.304Z,32.40
2023-02-09T06:17:40.098Z,27.30
2023-02-09T06:20:08.181Z,25.88
2023-02-09T06:22:34.943Z,24.10
2023-02-09T06:25:01.731Z,28.15
2023-02-09T06:27:28.526Z,28.63
2023-02-09T06:29:55.279Z,24.60
2023-02-09T06:32:22.088Z,25.75
2023-02-09T06:34:48.863Z,23.92
2023-02-09T06:37:15.752Z,25.05
2023-02-09T06:39:42.577Z,30.35
2023-02-09T06:42:09.350Z,23.15
2023-02-09T06:44:36.120Z,27.52
2023-02-09T06:47:03.196Z,26.45
2023-02-09T06:49:29.966Z,27.52
2023-02-09T06:51:56.855Z,24.33
2023-02-09T06:54:24.464Z,25.52
2023-02-09T06:56:51.244Z,30.90
2023-02-09T06:59:18.148Z,26.25
2023-02-09T07:01:44.931Z,29.88
2023-02-09T07:04:12.624Z,30.50
2023-02-09T07:06:39.410Z,30.35
2023-02-09T07:09:06.183Z,28.73
2023-02-09T07:11:32.959Z,25.77
2023-02-09T07:13:59.970Z,25.27
2023-02-09T07:16:26.919Z,28.05
2023-02-09T07:18:53.794Z,27.83
2023-02-09T07:21:21.393Z,24.15
2023-02-09T07:23:48.833Z,23.38
2023-02-09T07:26:17.438Z,21.65
2023-02-09T07:28:44.917Z,23.65
2023-02-09T07:31:15.246Z,21.73
2023-02-09T07:33:42.604Z,23.75
2023-02-09T07:36:12.134Z,28.65
2023-02-09T07:38:39.865Z,22.27
2023-02-09T07:41:08.313Z,28.20
2023-02-09T07:43:35.397Z,24.05
2023-02-09T07:46:07.932Z,24.42
2023-02-09T07:48:36.531Z,21.38
2023-02-09T07:51:04.006Z,23.52
2023-02-09T07:53:30.812Z,24.58
2023-02-09T07:55:57.644Z,20.45
2023-02-09T07:58:24.603Z,24.77
2023-02-09T08:00:51.760Z,24.75
2023-02-09T08:03:23.832Z,23.38
2023-02-09T08:06:19.628Z,26.13
2023-02-09T08:08:48.648Z,23.98
2023-02-09T08:11:22.323Z,22.33
2023-02-09T08:13:50.787Z,23.52
2023-02-09T08:16:24.830Z,22.73
2023-02-09T08:19:00.463Z,22.13
2023-02-09T08:23:58.742Z,21.92
2023-02-09T08:26:25.625Z,24.42
2023-02-09T08:28:53.796Z,20.85
2023-02-09T08:31:21.931Z,25.35
2023-02-09T08:33:50.534Z,22.00
2023-02-09T08:36:19.372Z,23.42
2023-02-09T08:38:47.985Z,22.75
2023-02-09T08:41:17.282Z,19.83
2023-02-09T08:43:49.224Z,24.55
2023-02-09T08:46:16.509Z,25.10
2023-02-09T08:48:45.283Z,21.55
2023-02-09T08:51:13.694Z,22.10
2023-02-09T08:53:41.007Z,28.85
2023-02-09T08:56:08.688Z,21.30
2023-02-09T08:58:35.554Z,23.77
2023-02-09T09:01:02.592Z,22.25
2023-02-09T09:03:31.738Z,20.95
2023-02-09T09:06:01.253Z,22.08
2023-02-09T09:08:29.126Z,21.48
2023-02-09T09:10:56.103Z,23.98
2023-02-09T09:13:24.230Z,22.30
2023-02-09T09:15:52.489Z,27.90
2023-02-09T09:18:19.396Z,21.35
2023-02-09T09:20:46.157Z,21.88
2023-02-09T09:23:13.742Z,22.95
2023-02-09T09:25:41.017Z,22.85
2023-02-09T09:28:08.901Z,21.83
2023-02-09T09:30:36.366Z,21.42
2023-02-09T09:33:03.639Z,23.55
2023-02-09T09:35:31.167Z,23.63
2023-02-09T09:37:58.448Z,21.75
2023-02-09T09:40:29.810Z,23.52
2023-02-09T09:43:04.210Z,20.52
2023-02-09T09:45:35.277Z,20.27
2023-02-09T09:48:02.490Z,20.65
2023-02-09T09:50:42.027Z,28.10
2023-02-09T09:53:35.386Z,24.55
2023-02-09T09:56:07.081Z,21.38
2023-02-09T09:58:39.606Z,25.35
2023-02-09T10:01:11.652Z,21.65
2023-02-09T10:03:38.607Z,21.58
2023-02-09T10:06:21.590Z,21.75
2023-02-09T10:08:57.298Z,22.13
2023-02-09T10:11:43.151Z,22.60
2023-02-09T10:14:10.365Z,20.88
2023-02-09T10:16:40.441Z,23.67
2023-02-09T10:19:23.572Z,19.98
2023-02-09T10:21:50.536Z,24.45
2023-02-09T10:24:32.769Z,20.55
2023-02-09T10:27:31.023Z,20.05
2023-02-09T10:30:22.977Z,17.92
2023-02-09T10:32:49.800Z,22.08
2023-02-09T10:35:27.948Z,21.13
2023-02-09T10:38:04.105Z,20.45
2023-02-09T10:40:40.334Z,21.00
2023-02-09T10:43:21.923Z,23.23
2023-02-09T10:45:55.867Z,27.90
2023-02-09T10:50:56.010Z,18.85
2023-02-09T10:53:33.579Z,21.38
2023-02-09T10:56:12.130Z,23.92
2023-02-09T10:58:39.426Z,20.05
2023-02-09T11:01:09.437Z,20.02
2023-02-09T11:03:46.287Z,21.05
2023-02-09T11:06:19.508Z,22.20
2023-02-09T11:08:59.596Z,26.15
2023-02-09T11:11:32.852Z,19.63
2023-02-09T11:14:00.764Z,19.83
2023-02-09T11:16:54.667Z,21.90
2023-02-09T11:19:31.121Z,20.50
2023-02-09T11:22:41.329Z,20.88
2023-02-09T11:25:37.121Z,20.98
2023-02-09T11:28:28.665Z,20.45
2023-02-09T11:31:39.375Z,17.70
2023-02-09T11:34:40.212Z,18.98
2023-02-09T11:37:50.267Z,19.67
2023-02-09T11:40:33.515Z,19.30
2023-02-09T11:43:17.402Z,20.55
2023-02-09T11:45:53.187Z,19.25
2023-02-09T11:48:26.020Z,20.98
2023-02-09T11:50:58.493Z,18.88
2023-02-09T11:53:59.562Z,18.77
2023-02-09T11:56:28.796Z,18.98
2023-02-09T11:59:26.876Z,22.42
2023-02-09T12:02:37.318Z,19.95
2023-02-09T12:05:05.641Z,18.27
2023-02-09T12:08:05.424Z,17.90
2023-02-09T12:10:49.133Z,18.48
2023-02-09T12:13:43.981Z,17.38
2023-02-09T12:18:42.224Z,17.92
2023-02-09T12:21:09.679Z,17.23
2023-02-09T12:23:41.505Z,17.42
2023-02-09T12:26:17.466Z,21.55
2023-02-09T12:29:22.617Z,18.42
2023-02-09T12:34:41.383Z,19.92
2023-02-09T12:37:14.273Z,17.67
2023-02-09T12:40:12.056Z,23.45
2023-02-09T12:43:02.169Z,21.52
2023-02-09T12:45:43.788Z,22.10
2023-02-09T12:48:13.640Z,18.20
2023-02-09T12:50:43.500Z,16.63
2023-02-09T12:53:22.209Z,17.08
2023-02-09T12:56:08.928Z,19.73
2023-02-09T12:58:44.756Z,17.75
2023-02-09T13:01:16.456Z,16.48
2023-02-09T13:04:05.253Z,18.40
2023-02-09T13:06:47.959Z,19.02
2023-02-09T13:09:28.886Z,16.30
2023-02-09T13:12:14.530Z,17.27
2023-02-09T13:14:47.476Z,20.08
2023-02-09T13:17:28.795Z,18.08
2023-02-09T13:20:35.948Z,17.38
2023-02-09T13:23:40.333Z,19.42
2023-02-09T13:26:26.325Z,18.42
2023-02-09T13:29:20.843Z,18.25
2023-02-09T13:35:04.828Z,17.67
2023-02-09T13:37:49.535Z,22.15
2023-02-09T13:40:33.607Z,18.02
2023-02-09T13:43:18.862Z,18.83
2023-02-09T13:45:51.738Z,17.42
2023-02-09T13:48:38.882Z,15.82
2023-02-09T13:51:20.645Z,19.13
2023-02-09T13:54:00.147Z,17.92
2023-02-09T13:56:28.624Z,17.85
2023-02-09T13:58:55.970Z,19.17
2023-02-09T14:01:30.266Z,17.25
2023-02-09T14:04:09.950Z,20.73
2023-02-09T14:06:48.982Z,16.85
2023-02-09T14:09:24.622Z,19.33
2023-02-09T14:11:56.536Z,20.15
2023-02-09T14:15:11.208Z,15.48
2023-02-09T14:17:38.962Z,19.88
2023-02-09T14:20:22.362Z,18.10
2023-02-09T14:23:01.161Z,15.25
2023-02-09T14:25:30.350Z,18.90
2023-02-09T14:27:58.236Z,15.77
2023-02-09T14:30:31.992Z,17.02
2023-02-09T14:33:03.277Z,23.02
2023-02-09T14:35:41.114Z,23.20
2023-02-09T14:38:42.698Z,17.20
2023-02-09T14:41:32.312Z,16.10
2023-02-09T14:44:21.459Z,18.95
2023-02-09T14:46:57.017Z,20.50
2023-02-09T14:49:24.831Z,18.67
2023-02-09T14:52:02.285Z,20.13
2023-02-09T14:54:33.167Z,20.77
2023-02-09T14:57:01.095Z,17.27
2023-02-09T14:59:28.104Z,19.65
2023-02-09T15:01:55.521Z,19.52
2023-02-09T15:04:22.324Z,20.67
2023-02-09T15:06:59.846Z,17.92
2023-02-09T15:09:33.749Z,19.50
2023-02-09T15:12:07.125Z,17.77
2023-02-09T15:14:45.735Z,20.70
2023-02-09T15:17:18.276Z,17.50
2023-02-09T15:19:46.201Z,20.58
2023-02-09T15:22:16.085Z,19.42
2023-02-09T15:24:44.832Z,20.20
2023-02-09T15:27:36.318Z,19.40
2023-02-09T15:30:14.092Z,17.60
2023-02-09T15:32:40.875Z,25.58
2023-02-09T15:35:08.213Z,18.92
2023-02-09T15:37:37.473Z,18.15
2023-02-09T15:40:55.470Z,19.98
2023-02-09T15:43:42.132Z,17.70
2023-02-09T15:46:28.510Z,18.83
2023-02-09T15:48:55.421Z,20.25
2023-02-09T15:51:28.604Z,22.55
2023-02-09T15:53:58.982Z,23.93
2023-02-09T15:56:25.890Z,22.27
2023-02-09T15:58:54.327Z,20.27
2023-02-09T16:01:21.166Z,20.50
2023-02-09T16:03:48.027Z,20.90
2023-02-09T16:06:19.881Z,18.13
2023-02-09T16:08:48.200Z,21.27
2023-02-09T16:11:27.111Z,23.80
2023-02-09T16:13:54.635Z,20.13
2023-02-09T16:16:21.457Z,19.33
2023-02-09T16:18:48.255Z,20.38
2023-02-09T16:21:30.615Z,24.27
2023-02-09T16:24:01.129Z,17.38
2023-02-09T16:26:30.128Z,25.02
2023-02-09T16:28:57.376Z,20.80
2023-02-09T16:31:25.353Z,25.55
2023-02-09T16:33:52.531Z,23.10
2023-02-09T16:36:23.746Z,23.08
2023-02-09T16:38:50.914Z,21.85
2023-02-09T16:41:37.208Z,20.55
2023-02-09T16:44:26.614Z,21.38
2023-02-09T16:46:55.945Z,18.42
2023-02-09T16:49:40.603Z,21.42
2023-02-09T16:52:17.567Z,25.10
2023-02-09T16:54:58.428Z,20.60
2023-02-09T16:57:26.974Z,20.38
2023-02-09T16:59:54.843Z,23.90
2023-02-09T17:02:41.575Z,22.08
2023-02-09T17:05:19.317Z,20.58
2023-02-09T17:07:54.924Z,20.50
2023-02-09T17:10:28.137Z,22.52
2023-02-09T17:12:54.957Z,19.55
2023-02-09T17:15:30.592Z,24.92
2023-02-09T17:18:03.120Z,25.17
2023-02-09T17:20:43.185Z,26.25
2023-02-09T17:23:21.329Z,27.15
2023-02-09T17:25:50.756Z,23.52
2023-02-09T17:28:19.152Z,24.00
2023-02-09T17:30:47.715Z,23.95
2023-02-09T17:33:23.849Z,25.50
2023-02-09T17:38:44.523Z,21.70
2023-02-09T17:41:21.632Z,26.35
2023-02-09T17:43:50.721Z,26.30
2023-02-09T17:46:20.147Z,26.63
2023-02-09T17:48:47.857Z,21.23
2023-02-09T17:51:31.560Z,22.92
2023-02-09T17:53:58.327Z,20.38
2023-02-09T17:56:25.195Z,21.25
2023-02-09T17:58:51.991Z,21.00
2023-02-09T18:01:27.599Z,23.88
2023-02-09T18:03:57.699Z,22.40
2023-02-09T18:06:35.316Z,20.67
2023-02-09T18:09:09.927Z,21.75
2023-02-09T18:11:52.058Z,23.25
2023-02-09T18:14:21.436Z,19.75
2023-02-09T18:16:48.827Z,19.75
2023-02-09T18:19:17.777Z,21.20
2023-02-09T18:21:58.200Z,21.77
2023-02-09T18:24:29.018Z,20.42
2023-02-09T18:26:56.186Z,20.63
2023-02-09T18:29:26.055Z,19.13
2023-02-09T18:31:52.823Z,19.42
2023-02-09T18:34:20.526Z,22.25
2023-02-09T18:36:47.304Z,21.15
2023-02-09T18:39:17.275Z,16.48
2023-02-09T18:41:46.204Z,22.35
2023-02-09T18:44:13.082Z,22.08
2023-02-09T18:46:42.049Z,19.75
2023-02-09T18:49:12.505Z,18.33
2023-02-09T18:51:39.276Z,22.77
2023-02-09T18:54:06.101Z,24.92
2023-02-09T18:56:33.078Z,21.95
2023-02-09T18:58:59.842Z,24.40
2023-02-09T19:01:26.686Z,22.27
2023-02-09T19:03:54.068Z,18.83
2023-02-09T19:06:22.683Z,17.80
2023-02-09T19:08:50.184Z,23.27
2023-02-09T19:11:21.292Z,18.45
2023-02-09T19:14:07.576Z,20.17
2023-02-09T19:16:37.182Z,20.50
2023-02-09T19:19:04.310Z,25.88
2023-02-09T19:21:32.199Z,18.10
2023-02-09T19:23:59.089Z,21.75
2023-02-09T19:26:25.867Z,23.40
2023-02-09T19:28:52.696Z,22.48
2023-02-09T19:31:19.558Z,22.38
2023-02-09T19:33:46.400Z,24.65
2023-02-09T19:36:13.274Z,24.67
2023-02-09T19:38:40.092Z,23.88
2023-02-09T19:41:11.905Z,22.10
2023-02-09T19:43:39.909Z,22.15
2023-02-09T19:46:07.650Z,22.27
2023-02-09T19:48:37.271Z,21.58
2023-02-09T19:51:04.241Z,27.25
2023-02-09T19:53:31.508Z,23.38
2023-02-09T19:55:58.312Z,22.10
2023-02-09T19:58:25.248Z,19.02
2023-02-09T20:00:53.611Z,20.17
2023-02-09T20:03:20.429Z,20.73
2023-02-09T20:05:47.584Z,18.77
2023-02-09T20:08:17.687Z,21.95
2023-02-09T20:10:45.295Z,18.00
2023-02-09T20:13:13.220Z,22.38
2023-02-09T20:15:42.197Z,23.48
2023-02-09T20:18:09.312Z,19.60
2023-02-09T20:20:40.342Z,18.63
2023-02-09T20:23:09.061Z,24.00
2023-02-09T20:25:35.840Z,20.80
2023-02-09T20:28:02.819Z,19.73
2023-02-09T20:30:29.669Z,24.92
2023-02-09T20:32:56.424Z,29.17
2023-02-09T20:35:23.252Z,22.35
2023-02-09T20:37:52.667Z,23.23
2023-02-09T20:40:20.034Z,24.10
2023-02-09T20:43:05.256Z,22.65
2023-02-09T20:45:50.410Z,22.55
2023-02-09T20:48:17.459Z,26.48
2023-02-09T20:50:45.180Z,33.55
2023-02-09T20:53:12.511Z,24.23
2023-02-09T20:55:39.341Z,23.27
2023-02-09T20:58:06.287Z,27.33
2023-02-09T21:00:35.692Z,22.70
2023-02-09T21:03:02.521Z,28.23
2023-02-09T21:05:29.397Z,24.67
2023-02-09T21:07:56.223Z,25.02
2023-02-09T21:10:23.475Z,26.80
2023-02-09T21:12:50.326Z,25.08
2023-02-09T21:15:17.159Z,27.33
2023-02-09T21:17:47.875Z,24.77
2023-02-09T21:20:18.012Z,29.92
2023-02-09T21:22:44.778Z,26.13
2023-02-09T21:25:11.578Z,29.10
2023-02-09T21:27:38.947Z,28.48
2023-02-09T21:30:06.477Z,27.58
2023-02-09T21:32:34.916Z,26.23
2023-02-09T21:35:01.733Z,30.13
2023-02-09T21:37:31.896Z,28.50
2023-02-09T21:40:02.758Z,31.85
2023-02-09T21:42:31.164Z,29.35
2023-02-09T21:44:59.456Z,28.52
2023-02-09T21:47:27.977Z,31.25
2023-02-09T21:49:54.929Z,31.90
2023-02-09T21:52:21.969Z,30.90
2023-02-09T21:54:48.921Z,31.80
2023-02-09T21:57:15.927Z,32.20
2023-02-09T21:59:42.996Z,34.00
2023-02-09T22:02:16.635Z,32.35
2023-02-09T22:04:44.757Z,32.97
2023-02-09T22:07:12.974Z,34.40
2023-02-09T22:09:40.246Z,32.47
2023-02-09T22:12:07.658Z,36.50
2023-02-09T22:14:34.451Z,32.22
2023-02-09T22:17:01.260Z,30.83
2023-02-09T22:19:28.029Z,38.40
2023-02-09T22:21:57.592Z,36.70
2023-02-09T22:24:24.811Z,41.83
2023-02-09T22:26:51.618Z,39.75
2023-02-09T22:29:18.389Z,39.05
2023-02-09T22:31:45.781Z,45.95
2023-02-09T22:34:12.699Z,37.80
2023-02-09T22:36:39.679Z,36.25
2023-02-09T22:39:07.829Z,45.33
2023-02-09T22:41:35.229Z,37.80
2023-02-09T22:44:09.800Z,42.45
2023-02-09T22:46:39.128Z,40.90
2023-02-09T22:49:09.201Z,41.45
2023-02-09T22:51:36.595Z,43.83
2023-02-09T22:54:05.293Z,45.92
2023-02-09T22:56:32.879Z,42.28
2023-02-09T22:59:01.171Z,51.65
2023-02-09T23:01:28.796Z,48.97
2023-02-09T23:03:55.929Z,45.03
2023-02-09T23:06:26.889Z,49.70
2023-02-09T23:08:57.122Z,52.28
2023-02-09T23:11:23.982Z,48.30
2023-02-09T23:14:03.886Z,55.75
2023-02-09T23:16:35.664Z,55.10
2023-02-09T23:19:06.569Z,47.70
2023-02-09T23:21:39.856Z,45.72
2023-02-09T23:24:07.936Z,51.22
2023-02-09T23:26:35.190Z,60.10
2023-02-09T23:29:06.568Z,52.30
2023-02-09T23:31:34.018Z,48.53
2023-02-09T23:34:00.876Z,49.40
2023-02-09T23:36:30.986Z,57.50
2023-02-09T23:39:01.705Z,49.63
2023-02-09T23:41:29.159Z,55.92
2023-02-09T23:43:56.819Z,55.03
2023-02-09T23:46:28.726Z,55.28
2023-02-09T23:48:56.711Z,51.00
2023-02-09T23:51:33.891Z,56.22
2023-02-09T23:54:04.755Z,54.92
2023-02-09T23:56:36.909Z,48.33
2023-02-09T23:59:07.621Z,52.92
